createdAt,value
2018-07-27T00:00:17.765Z,5.40
2018-07-27T00:02:46.491Z,6.07
2018-07-27T00:05:15.336Z,6.20
2018-07-27T00:07:44.123Z,6.10
2018-07-27T00:10:16.661Z,5.90
2018-07-27T00:12:45.530Z,5.77
2018-07-27T00:15:15.075Z,5.90
2018-07-27T00:17:43.948Z,6.30
2018-07-27T00:20:12.767Z,5.47
2018-07-27T00:22:41.520Z,5.70
2018-07-27T00:25:10.389Z,4.87
2018-07-27T00:27:39.262Z,5.83
2018-07-27T00:30:08.489Z,5.20
2018-07-27T00:32:37.403Z,6.17
2018-07-27T00:35:06.185Z,5.70
2018-07-27T00:37:34.919Z,5.40
2018-07-27T00:40:03.689Z,5.97
2018-07-27T00:42:32.940Z,5.63
2018-07-27T00:45:08.059Z,5.50
2018-07-27T00:47:36.877Z,5.63
2018-07-27T00:50:05.665Z,6.07
2018-07-27T00:52:34.441Z,5.97
2018-07-27T00:55:03.383Z,5.60
2018-07-27T00:57:32.274Z,5.23
2018-07-27T01:00:01.161Z,5.90
2018-07-27T01:02:29.918Z,6.17
2018-07-27T01:04:58.942Z,5.70
2018-07-27T01:07:27.797Z,5.90
2018-07-27T01:09:56.892Z,5.50
2018-07-27T01:12:25.727Z,5.47
2018-07-27T01:14:54.483Z,5.70
2018-07-27T01:17:23.324Z,6.10
2018-07-27T01:19:52.118Z,5.43
2018-07-27T01:22:21.025Z,6.80
2018-07-27T01:24:50.068Z,6.00
2018-07-27T01:27:18.934Z,5.47
2018-07-27T01:29:47.854Z,5.70
2018-07-27T01:32:17.265Z,6.07
2018-07-27T01:34:46.127Z,5.93
2018-07-27T01:37:15.275Z,5.60
2018-07-27T01:39:44.335Z,6.20
2018-07-27T01:42:13.236Z,5.17
2018-07-27T01:44:42.273Z,4.83
2018-07-27T01:47:11.058Z,5.63
2018-07-27T01:49:39.823Z,6.07
2018-07-27T01:52:08.695Z,5.63
2018-07-27T01:54:37.610Z,6.07
2018-07-27T01:57:07.279Z,5.67
2018-07-27T01:59:36.537Z,5.90
2018-07-27T02:02:05.733Z,5.97
2018-07-27T02:04:34.761Z,5.57
2018-07-27T02:07:03.508Z,5.70
2018-07-27T02:09:32.248Z,6.93
2018-07-27T02:12:01.046Z,5.93
2018-07-27T02:14:30.009Z,5.93
2018-07-27T02:16:58.822Z,5.93
2018-07-27T02:19:27.586Z,5.77
2018-07-27T02:21:56.293Z,6.73
2018-07-27T02:24:25.039Z,6.67
2018-07-27T02:26:53.881Z,6.67
2018-07-27T02:29:22.841Z,5.70
2018-07-27T02:31:51.521Z,5.40
2018-07-27T02:34:20.260Z,6.40
2018-07-27T02:36:49.370Z,5.90
2018-07-27T02:39:18.448Z,7.33
2018-07-27T02:41:47.247Z,6.23
2018-07-27T02:44:16.038Z,6.50
2018-07-27T02:46:44.890Z,6.47
2018-07-27T02:49:13.631Z,6.17
2018-07-27T02:51:42.551Z,6.27
2018-07-27T02:54:11.265Z,7.13
2018-07-27T02:56:40.029Z,6.30
2018-07-27T02:59:09.598Z,6.13
2018-07-27T03:01:38.735Z,6.13
2018-07-27T03:04:07.639Z,6.77
2018-07-27T03:06:36.428Z,6.50
2018-07-27T03:09:07.626Z,6.00
2018-07-27T03:11:36.421Z,7.13
2018-07-27T03:14:05.286Z,6.70
2018-07-27T03:16:34.046Z,6.33
2018-07-27T03:19:02.930Z,7.40
2018-07-27T03:21:31.724Z,6.27
2018-07-27T03:24:00.534Z,6.30
2018-07-27T03:26:29.244Z,6.37
2018-07-27T03:28:58.018Z,6.20
2018-07-27T03:31:27.032Z,6.93
2018-07-27T03:33:55.865Z,5.47
2018-07-27T03:36:26.066Z,6.57
2018-07-27T03:38:55.081Z,6.80
2018-07-27T03:41:23.961Z,6.10
2018-07-27T03:43:52.833Z,6.17
2018-07-27T03:46:21.809Z,6.60
2018-07-27T03:48:50.709Z,7.67
2018-07-27T03:51:19.577Z,6.67
2018-07-27T03:53:48.653Z,6.10
2018-07-27T03:56:17.666Z,6.33
2018-07-27T03:58:46.580Z,5.90
2018-07-27T04:01:15.749Z,6.00
2018-07-27T04:03:44.627Z,6.00
2018-07-27T04:06:13.401Z,7.00
2018-07-27T04:08:42.374Z,6.80
2018-07-27T04:11:11.193Z,6.80
2018-07-27T04:13:40.118Z,5.80
2018-07-27T04:16:08.976Z,7.67
2018-07-27T04:18:37.781Z,7.20
2018-07-27T04:21:06.649Z,6.30
2018-07-27T04:23:35.449Z,7.20
2018-07-27T04:26:04.403Z,5.90
2018-07-27T04:28:33.460Z,7.50
2018-07-27T04:31:02.326Z,6.17
2018-07-27T04:33:31.217Z,6.57
2018-07-27T04:36:00.138Z,6.83
2018-07-27T04:38:29.051Z,7.17
2018-07-27T04:40:57.903Z,6.40
2018-07-27T04:43:26.726Z,7.47
2018-07-27T04:45:55.702Z,7.00
2018-07-27T04:48:24.569Z,6.40
2018-07-27T04:50:53.303Z,6.40
2018-07-27T04:53:22.278Z,7.27
2018-07-27T04:55:51.281Z,6.63
2018-07-27T04:58:20.206Z,6.73
2018-07-27T05:00:49.178Z,6.70
2018-07-27T05:03:18.050Z,6.53
2018-07-27T05:05:47.065Z,6.60
2018-07-27T05:08:16.070Z,6.10
2018-07-27T05:10:47.765Z,6.17
2018-07-27T05:13:17.748Z,6.33
2018-07-27T05:15:47.798Z,6.17
2018-07-27T05:18:17.432Z,6.20
2018-07-27T05:20:46.798Z,5.80
2018-07-27T05:23:15.701Z,5.70
2018-07-27T05:25:44.521Z,5.57
2018-07-27T05:28:13.205Z,6.17
2018-07-27T05:30:42.212Z,6.27
2018-07-27T05:33:11.249Z,5.60
2018-07-27T05:35:40.014Z,5.77
2018-07-27T05:38:08.754Z,5.67
2018-07-27T05:40:37.762Z,7.07
2018-07-27T05:43:06.728Z,5.33
2018-07-27T05:45:35.873Z,5.80
2018-07-27T05:48:05.139Z,6.27
2018-07-27T05:50:34.022Z,5.30
2018-07-27T05:53:02.857Z,6.27
2018-07-27T05:55:31.556Z,6.43
2018-07-27T05:58:00.349Z,5.60
2018-07-27T06:00:29.138Z,5.60
2018-07-27T06:02:57.945Z,5.40
2018-07-27T06:05:26.769Z,5.17
2018-07-27T06:07:55.726Z,6.60
2018-07-27T06:10:24.596Z,5.50
2018-07-27T06:12:53.341Z,5.67
2018-07-27T06:15:22.071Z,5.90
2018-07-27T06:17:50.961Z,6.17
2018-07-27T06:20:20.437Z,5.90
2018-07-27T06:22:49.321Z,6.20
2018-07-27T06:25:18.255Z,5.30
2018-07-27T06:27:47.073Z,6.07
2018-07-27T06:30:15.890Z,6.60
2018-07-27T06:32:44.821Z,5.57
2018-07-27T06:35:13.550Z,6.43
2018-07-27T06:37:42.541Z,6.13
2018-07-27T06:40:11.344Z,5.93
2018-07-27T06:42:40.299Z,6.17
2018-07-27T06:45:09.148Z,5.33
2018-07-27T06:47:38.176Z,5.20
2018-07-27T06:50:07.245Z,6.33
2018-07-27T06:52:36.310Z,6.10
2018-07-27T06:55:05.359Z,5.90
2018-07-27T06:57:34.734Z,5.07
2018-07-27T07:00:03.872Z,5.77
2018-07-27T07:02:32.773Z,5.40
2018-07-27T07:05:02.254Z,5.07
2018-07-27T07:07:31.151Z,4.90
2018-07-27T07:09:59.992Z,4.90
2018-07-27T07:12:28.947Z,5.57
2018-07-27T07:14:57.697Z,5.57
2018-07-27T07:17:26.409Z,4.53
2018-07-27T07:19:55.366Z,5.83
2018-07-27T07:22:24.254Z,4.77
2018-07-27T07:24:53.021Z,5.17
2018-07-27T07:27:22.015Z,5.67
2018-07-27T07:29:51.026Z,4.70
2018-07-27T07:32:20.051Z,4.33
2018-07-27T07:34:48.804Z,5.67
2018-07-27T07:37:17.649Z,5.17
2018-07-27T07:39:46.440Z,4.90
2018-07-27T07:42:15.352Z,5.90
2018-07-27T07:44:44.260Z,5.53
2018-07-27T07:47:13.015Z,5.37
2018-07-27T07:49:41.909Z,5.27
2018-07-27T07:52:10.623Z,5.10
2018-07-27T07:54:39.542Z,5.23
2018-07-27T07:57:08.244Z,5.60
2018-07-27T07:59:37.227Z,4.63
2018-07-27T08:02:06.242Z,5.57
2018-07-27T08:04:35.410Z,5.40
2018-07-27T08:07:04.360Z,5.97
2018-07-27T08:09:33.185Z,5.20
2018-07-27T08:12:02.209Z,5.67
2018-07-27T08:14:30.916Z,5.10
2018-07-27T08:16:59.892Z,5.33
2018-07-27T08:19:28.964Z,4.33
2018-07-27T08:21:57.969Z,5.27
2018-07-27T08:24:26.735Z,5.40
2018-07-27T08:27:04.111Z,4.97
2018-07-27T08:29:42.672Z,5.50
2018-07-27T08:32:11.767Z,5.10
2018-07-27T08:34:40.714Z,5.57
2018-07-27T08:37:09.857Z,4.97
2018-07-27T08:39:40.726Z,5.17
2018-07-27T08:42:09.469Z,4.90
2018-07-27T08:44:39.580Z,5.47
2018-07-27T08:47:08.779Z,6.17
2018-07-27T08:49:37.691Z,5.23
2018-07-27T08:52:06.786Z,5.23
2018-07-27T08:54:35.578Z,5.60
2018-07-27T08:57:04.529Z,5.67
2018-07-27T08:59:33.450Z,6.20
2018-07-27T09:02:02.624Z,6.70
2018-07-27T09:04:31.600Z,5.03
2018-07-27T09:07:00.637Z,4.80
2018-07-27T09:09:29.626Z,4.67
2018-07-27T09:11:58.383Z,5.30
2018-07-27T09:14:27.425Z,4.80
2018-07-27T09:16:56.401Z,5.00
2018-07-27T09:19:25.337Z,4.60
2018-07-27T09:21:54.206Z,4.50
2018-07-27T09:24:23.096Z,4.10
2018-07-27T09:26:51.765Z,4.87
2018-07-27T09:29:20.601Z,3.43
2018-07-27T09:31:49.958Z,3.90
2018-07-27T09:34:18.931Z,4.00
2018-07-27T09:36:47.944Z,3.47
2018-07-27T09:39:16.784Z,4.00
2018-07-27T09:41:45.510Z,3.77
2018-07-27T09:44:14.481Z,3.40
2018-07-27T09:46:43.768Z,3.30
2018-07-27T09:49:12.673Z,3.70
2018-07-27T09:51:43.176Z,4.10
2018-07-27T09:54:12.025Z,4.40
2018-07-27T09:56:40.813Z,4.40
2018-07-27T09:59:09.846Z,4.50
2018-07-27T10:01:38.821Z,3.10
2018-07-27T10:04:07.590Z,4.03
2018-07-27T10:06:37.019Z,3.40
2018-07-27T10:09:08.247Z,4.20
2018-07-27T10:11:36.999Z,3.90
2018-07-27T10:14:06.365Z,3.77
2018-07-27T10:16:35.213Z,3.70
2018-07-27T10:19:04.137Z,3.70
2018-07-27T10:21:33.327Z,3.90
2018-07-27T10:24:02.245Z,5.33
2018-07-27T10:26:31.405Z,4.30
2018-07-27T10:29:00.869Z,4.00
2018-07-27T10:31:29.678Z,4.40
2018-07-27T10:33:58.682Z,4.03
2018-07-27T10:36:27.804Z,4.37
2018-07-27T10:38:56.594Z,3.90
2018-07-27T10:41:25.433Z,4.00
2018-07-27T10:43:54.267Z,4.50
2018-07-27T10:46:23.163Z,3.67
2018-07-27T10:48:52.333Z,3.80
2018-07-27T10:51:21.142Z,4.83
2018-07-27T10:53:50.070Z,3.30
2018-07-27T10:56:18.803Z,4.67
2018-07-27T10:58:48.216Z,4.03
2018-07-27T11:01:17.322Z,4.00
2018-07-27T11:03:46.142Z,4.30
2018-07-27T11:06:15.218Z,3.57
2018-07-27T11:08:44.015Z,4.13
2018-07-27T11:11:12.895Z,4.63
2018-07-27T11:13:41.897Z,3.80
2018-07-27T11:16:10.651Z,3.97
2018-07-27T11:18:39.583Z,4.03
2018-07-27T11:21:08.336Z,3.80
2018-07-27T11:23:37.178Z,4.10
2018-07-27T11:26:06.040Z,3.97
2018-07-27T11:28:35.031Z,3.63
2018-07-27T11:31:04.634Z,3.97
2018-07-27T11:33:33.706Z,3.67
2018-07-27T11:36:03.121Z,4.00
2018-07-27T11:38:31.966Z,4.13
2018-07-27T11:41:01.092Z,3.67
2018-07-27T11:43:30.220Z,4.10
2018-07-27T11:45:59.286Z,3.90
2018-07-27T11:48:28.530Z,4.03
2018-07-27T11:50:57.830Z,3.97
2018-07-27T11:53:27.512Z,5.17
2018-07-27T11:55:56.601Z,6.73
2018-07-27T11:58:25.518Z,5.97
2018-07-27T12:00:54.578Z,6.20
2018-07-27T12:03:23.583Z,6.10
2018-07-27T12:05:52.287Z,5.67
2018-07-27T12:08:21.289Z,5.23
2018-07-27T12:10:50.187Z,5.83
2018-07-27T12:13:19.129Z,5.67
2018-07-27T12:15:48.067Z,5.00
2018-07-27T12:18:16.891Z,3.80
2018-07-27T12:20:45.802Z,3.47
2018-07-27T12:23:14.721Z,3.20
2018-07-27T12:25:46.289Z,3.27
2018-07-27T12:28:15.310Z,3.07
2018-07-27T12:30:44.337Z,2.83
2018-07-27T12:33:13.720Z,2.80
2018-07-27T12:35:42.786Z,2.90
2018-07-27T12:38:12.185Z,4.03
2018-07-27T12:40:41.276Z,3.60
2018-07-27T12:43:10.303Z,3.37
2018-07-27T12:45:39.121Z,3.60
2018-07-27T12:48:08.109Z,3.13
2018-07-27T12:50:36.822Z,2.73
2018-07-27T12:53:05.772Z,3.47
2018-07-27T12:55:34.559Z,3.10
2018-07-27T12:58:03.708Z,3.30
2018-07-27T13:00:33.060Z,4.03
2018-07-27T13:03:01.919Z,3.77
2018-07-27T13:05:30.676Z,3.13
2018-07-27T13:07:59.548Z,3.73
2018-07-27T13:10:28.715Z,3.53
2018-07-27T13:12:57.766Z,3.80
2018-07-27T13:15:26.769Z,3.87
2018-07-27T13:17:55.552Z,3.87
2018-07-27T13:20:24.769Z,3.77
2018-07-27T13:22:54.218Z,3.87
2018-07-27T13:25:23.532Z,3.93
2018-07-27T13:27:52.239Z,3.67
2018-07-27T13:30:21.217Z,3.50
2018-07-27T13:32:50.154Z,3.20
2018-07-27T13:35:19.164Z,3.63
2018-07-27T13:37:48.102Z,4.10
2018-07-27T13:40:16.989Z,3.80
2018-07-27T13:42:45.733Z,4.30
2018-07-27T13:45:14.704Z,3.80
2018-07-27T13:47:43.913Z,3.50
2018-07-27T13:50:12.933Z,3.47
2018-07-27T13:52:41.882Z,3.10
2018-07-27T13:55:11.041Z,4.03
2018-07-27T13:57:40.010Z,3.87
2018-07-27T14:00:09.334Z,3.53
2018-07-27T14:02:38.296Z,3.90
2018-07-27T14:05:07.506Z,4.00
2018-07-27T14:07:39.269Z,3.43
2018-07-27T14:10:08.650Z,3.93
2018-07-27T14:12:37.591Z,3.47
2018-07-27T14:15:06.717Z,3.30
2018-07-27T14:17:35.633Z,4.00
2018-07-27T14:20:04.746Z,3.83
2018-07-27T14:22:33.524Z,3.50
2018-07-27T14:25:02.248Z,3.60
2018-07-27T14:27:31.005Z,4.20
2018-07-27T14:29:59.789Z,3.17
2018-07-27T14:32:28.686Z,3.53
2018-07-27T14:34:57.445Z,3.27
2018-07-27T14:37:26.462Z,2.53
2018-07-27T14:39:55.518Z,2.77
2018-07-27T14:42:24.348Z,2.87
2018-07-27T14:44:54.197Z,3.27
2018-07-27T14:47:23.369Z,2.90
2018-07-27T14:49:52.136Z,3.20
2018-07-27T14:52:20.992Z,3.40
2018-07-27T14:54:49.757Z,2.70
2018-07-27T14:57:18.640Z,2.77
2018-07-27T14:59:47.464Z,3.10
2018-07-27T15:02:16.377Z,2.60
2018-07-27T15:04:45.656Z,3.30
2018-07-27T15:07:14.495Z,3.40
2018-07-27T15:09:43.401Z,3.37
2018-07-27T15:12:12.280Z,2.83
2018-07-27T15:14:41.548Z,2.67
2018-07-27T15:17:10.467Z,3.43
2018-07-27T15:19:39.410Z,3.70
2018-07-27T15:22:08.344Z,3.40
2018-07-27T15:24:37.057Z,2.53
2018-07-27T15:27:05.942Z,3.00
2018-07-27T15:29:34.914Z,3.10
2018-07-27T15:32:03.762Z,3.60
2018-07-27T15:34:32.908Z,3.10
2018-07-27T15:37:01.812Z,3.10
2018-07-27T15:39:30.680Z,2.63
2018-07-27T15:41:59.425Z,2.93
2018-07-27T15:44:28.317Z,4.33
2018-07-27T15:46:57.245Z,3.63
2018-07-27T15:49:26.317Z,3.70
2018-07-27T15:51:55.046Z,3.10
2018-07-27T15:54:23.790Z,3.50
2018-07-27T15:56:52.657Z,3.03
2018-07-27T15:59:21.502Z,3.23
2018-07-27T16:01:50.293Z,3.17
2018-07-27T16:04:19.282Z,3.43
2018-07-27T16:06:48.533Z,2.83
2018-07-27T16:09:17.506Z,3.73
2018-07-27T16:11:46.377Z,3.30
2018-07-27T16:14:15.123Z,3.40
2018-07-27T16:16:44.313Z,3.20
2018-07-27T16:19:13.202Z,2.80
2018-07-27T16:21:42.144Z,3.00
2018-07-27T16:24:10.947Z,3.07
2018-07-27T16:26:39.661Z,2.67
2018-07-27T16:29:08.668Z,3.60
2018-07-27T16:31:37.428Z,3.00
2018-07-27T16:34:07.075Z,3.10
2018-07-27T16:36:35.935Z,2.97
2018-07-27T16:39:06.993Z,2.23
2018-07-27T16:41:35.990Z,3.40
2018-07-27T16:44:05.213Z,3.60
2018-07-27T16:46:33.994Z,3.07
2018-07-27T16:49:02.920Z,3.13
2018-07-27T16:51:33.714Z,3.20
2018-07-27T16:54:03.775Z,3.23
2018-07-27T16:56:32.681Z,2.17
2018-07-27T16:59:01.446Z,3.77
2018-07-27T17:01:30.293Z,3.40
2018-07-27T17:03:59.326Z,3.90
2018-07-27T17:06:28.443Z,3.37
2018-07-27T17:08:57.334Z,3.37
2018-07-27T17:11:26.294Z,3.13
2018-07-27T17:13:55.227Z,3.30
2018-07-27T17:16:24.221Z,3.57
2018-07-27T17:18:53.097Z,3.70
2018-07-27T17:21:22.038Z,3.60
2018-07-27T17:23:51.001Z,3.43
2018-07-27T17:26:19.965Z,3.30
2018-07-27T17:28:49.009Z,3.17
2018-07-27T17:31:17.838Z,3.57
2018-07-27T17:33:46.742Z,3.87
2018-07-27T17:36:15.558Z,2.63
2018-07-27T17:38:44.485Z,3.90
2018-07-27T17:41:13.264Z,3.20
2018-07-27T17:43:42.234Z,3.73
2018-07-27T17:46:11.224Z,3.57
2018-07-27T17:48:39.979Z,4.20
2018-07-27T17:51:08.942Z,3.10
2018-07-27T17:53:37.899Z,3.47
2018-07-27T17:56:06.993Z,3.50
2018-07-27T17:58:35.919Z,3.87
2018-07-27T18:01:04.962Z,3.67
2018-07-27T18:03:34.009Z,4.00
2018-07-27T18:06:03.213Z,3.37
2018-07-27T18:08:32.106Z,3.30
2018-07-27T18:11:01.005Z,3.30
2018-07-27T18:13:29.842Z,3.60
2018-07-27T18:15:58.836Z,3.60
2018-07-27T18:18:27.605Z,3.50
2018-07-27T18:20:56.594Z,3.30
2018-07-27T18:23:25.437Z,3.57
2018-07-27T18:25:54.201Z,4.07
2018-07-27T18:28:23.090Z,3.47
2018-07-27T18:30:52.217Z,4.00
2018-07-27T18:33:21.164Z,4.40
2018-07-27T18:35:50.209Z,3.93
2018-07-27T18:38:19.283Z,3.67
2018-07-27T18:40:48.226Z,4.00
2018-07-27T18:43:17.096Z,3.60
2018-07-27T18:45:45.969Z,3.87
2018-07-27T18:48:14.929Z,3.47
2018-07-27T18:50:44.094Z,3.93
2018-07-27T18:53:13.032Z,4.63
2018-07-27T18:55:41.908Z,3.90
2018-07-27T18:58:10.625Z,3.90
2018-07-27T19:00:39.405Z,4.07
2018-07-27T19:03:08.568Z,4.37
2018-07-27T19:05:37.606Z,4.30
2018-07-27T19:08:06.353Z,3.90
2018-07-27T19:10:35.182Z,3.70
2018-07-27T19:13:04.058Z,3.90
2018-07-27T19:15:33.042Z,4.80
2018-07-27T19:18:01.918Z,4.10
2018-07-27T19:20:30.695Z,4.67
2018-07-27T19:22:59.427Z,4.47
2018-07-27T19:25:28.182Z,5.47
2018-07-27T19:27:57.214Z,5.43
2018-07-27T19:30:26.118Z,6.17
2018-07-27T19:32:55.006Z,5.20
2018-07-27T19:35:23.958Z,4.93
2018-07-27T19:37:52.788Z,5.63
2018-07-27T19:40:21.697Z,5.57
2018-07-27T19:42:50.421Z,6.00
2018-07-27T19:45:19.464Z,5.23
2018-07-27T19:47:48.341Z,5.90
2018-07-27T19:50:17.149Z,5.30
2018-07-27T19:52:45.861Z,6.10
2018-07-27T19:55:14.813Z,5.00
2018-07-27T19:57:43.694Z,5.57
2018-07-27T20:00:12.801Z,4.90
2018-07-27T20:02:41.564Z,4.90
2018-07-27T20:05:10.486Z,5.90
2018-07-27T20:07:39.274Z,5.80
2018-07-27T20:10:08.418Z,5.90
2018-07-27T20:12:37.293Z,5.53
2018-07-27T20:15:07.136Z,5.97
2018-07-27T20:17:36.369Z,6.50
2018-07-27T20:20:05.342Z,5.63
2018-07-27T20:22:34.653Z,6.57
2018-07-27T20:25:03.630Z,6.33
2018-07-27T20:27:32.693Z,7.60
2018-07-27T20:30:01.445Z,6.83
2018-07-27T20:32:30.331Z,7.00
2018-07-27T20:34:59.215Z,6.63
2018-07-27T20:37:28.162Z,6.70
2018-07-27T20:39:56.980Z,7.10
2018-07-27T20:42:25.824Z,6.23
2018-07-27T20:44:54.713Z,6.77
2018-07-27T20:47:23.392Z,6.40
2018-07-27T20:49:52.132Z,5.70
2018-07-27T20:52:21.059Z,6.70
2018-07-27T20:54:50.154Z,7.47
2018-07-27T20:57:19.162Z,7.40
2018-07-27T20:59:48.101Z,7.37
2018-07-27T21:02:16.821Z,7.27
2018-07-27T21:04:45.793Z,8.80
2018-07-27T21:07:14.797Z,7.07
2018-07-27T21:09:43.749Z,6.50
2018-07-27T21:12:12.807Z,7.33
2018-07-27T21:14:42.097Z,7.37
2018-07-27T21:17:11.079Z,5.80
2018-07-27T21:19:40.098Z,6.60
2018-07-27T21:22:08.907Z,7.10
2018-07-27T21:24:37.861Z,6.87
2018-07-27T21:27:06.943Z,7.40
2018-07-27T21:29:35.965Z,6.60
2018-07-27T21:32:04.835Z,6.13
2018-07-27T21:34:34.102Z,7.10
2018-07-27T21:37:03.223Z,6.80
2018-07-27T21:39:32.143Z,6.47
2018-07-27T21:42:00.969Z,6.90
2018-07-27T21:44:29.948Z,6.53
2018-07-27T21:46:59.013Z,6.37
2018-07-27T21:49:27.876Z,7.83
2018-07-27T21:51:56.713Z,7.30
2018-07-27T21:54:25.524Z,6.90
2018-07-27T21:56:54.529Z,6.50
2018-07-27T21:59:23.597Z,7.63
2018-07-27T22:01:52.553Z,6.30
2018-07-27T22:04:21.479Z,7.27
2018-07-27T22:06:50.435Z,7.43
2018-07-27T22:09:19.368Z,7.13
2018-07-27T22:11:48.166Z,7.43
2018-07-27T22:14:17.077Z,6.40
2018-07-27T22:16:45.910Z,6.60
2018-07-27T22:19:14.637Z,7.40
2018-07-27T22:21:43.423Z,8.20
2018-07-27T22:24:12.293Z,7.07
2018-07-27T22:26:41.206Z,6.70
2018-07-27T22:29:10.106Z,7.57
2018-07-27T22:31:39.089Z,6.10
2018-07-27T22:34:08.248Z,6.63
2018-07-27T22:36:37.118Z,6.67
2018-07-27T22:39:08.841Z,7.33
2018-07-27T22:41:38.943Z,6.90
2018-07-27T22:44:08.336Z,7.20
2018-07-27T22:46:37.155Z,7.07
2018-07-27T22:49:06.157Z,7.50
2018-07-27T22:51:35.649Z,7.20
2018-07-27T22:54:05.363Z,7.10
2018-07-27T22:56:34.094Z,8.33
2018-07-27T22:59:02.973Z,7.87
2018-07-27T23:01:31.767Z,7.00
2018-07-27T23:04:00.491Z,7.83
2018-07-27T23:06:29.292Z,7.70
2018-07-27T23:08:58.344Z,8.00
2018-07-27T23:11:27.358Z,8.00
2018-07-27T23:13:56.175Z,8.60
2018-07-27T23:16:25.068Z,7.20
2018-07-27T23:18:54.026Z,7.23
2018-07-27T23:21:22.826Z,7.90
2018-07-27T23:23:51.701Z,9.37
2018-07-27T23:26:20.405Z,7.80
2018-07-27T23:28:49.188Z,7.37
2018-07-27T23:31:17.873Z,7.43
2018-07-27T23:33:46.669Z,7.60
2018-07-27T23:36:15.517Z,7.13
2018-07-27T23:38:44.342Z,7.83
2018-07-27T23:41:13.255Z,7.60
2018-07-27T23:43:42.053Z,7.13
2018-07-27T23:46:10.900Z,8.80
2018-07-27T23:48:39.854Z,7.80
2018-07-27T23:51:09.040Z,6.23
2018-07-27T23:53:37.861Z,7.50
2018-07-27T23:56:06.677Z,7.10
2018-07-27T23:58:35.626Z,6.83
